Time;durP1;ratioP1;P1;durP2;ratioP2;P2;SDS_P1;SDS_P2;PMS_P1;PMS_P2;Temp;Humidity;BMP_temperature;BMP_pressure;BME280_temperature;BME280_humidity;BME280_pressure;Samples;Min_cycle;Max_cycle;Signal;HPM_P1;HPM_P2
2023/01/17 00:01:10;;;;;;;5.53;2.00;;;4.20;99.90;;;;;;5059341;28;20198;-82
2023/01/17 00:11:56;;;;;;;2.13;1.57;;;4.10;99.90;;;;;;5057594;28;20259;-82
2023/01/17 00:14:21;;;;;;;1.97;1.53;;;4.10;99.90;;;;;;5058074;28;20270;-82
2023/01/17 00:16:47;;;;;;;1.80;1.70;;;4.00;99.90;;;;;;5057952;28;20199;-82
2023/01/17 01:33:47;;;;;;;3.83;1.80;;;3.60;99.90;;;;;;5062791;28;20163;-81
2023/01/17 01:36:12;;;;;;;5.03;1.87;;;3.70;99.90;;;;;;5061544;28;20198;-83
2023/01/17 01:38:38;;;;;;;3.53;2.37;;;3.70;99.90;;;;;;5059363;28;20184;-82
2023/01/17 01:41:04;;;;;;;4.33;2.03;;;3.70;99.90;;;;;;5061712;28;20183;-82
2023/01/17 01:43:41;;;;;;;3.57;2.00;;;3.70;99.90;;;;;;5059806;28;20190;-82
2023/01/17 01:46:08;;;;;;;4.73;2.20;;;3.70;99.90;;;;;;5060513;28;20604;-82
2023/01/17 01:48:46;;;;;;;3.07;1.80;;;3.70;99.90;;;;;;5060950;28;20267;-81
2023/01/17 01:51:20;;;;;;;6.87;2.97;;;3.60;99.90;;;;;;5060298;28;20195;-82
2023/01/17 01:53:50;;;;;;;1.70;1.60;;;3.60;99.90;;;;;;5060607;28;20185;-82
2023/01/17 01:56:17;;;;;;;2.00;1.47;;;3.60;99.90;;;;;;5061515;28;20174;-82
2023/01/17 01:58:47;;;;;;;2.53;1.60;;;3.60;99.90;;;;;;5060105;28;20566;-81
2023/01/17 02:01:13;;;;;;;2.93;1.77;;;3.60;99.90;;;;;;5061508;28;20234;-82
2023/01/17 02:03:40;;;;;;;2.00;1.37;;;3.60;99.90;;;;;;5061741;28;20176;-82
2023/01/17 02:06:42;;;;;;;4.13;1.47;;;3.60;99.90;;;;;;5061918;28;20573;-82
2023/01/17 02:09:11;;;;;;;1.70;1.60;;;3.60;99.90;;;;;;5057968;28;20179;-81
2023/01/17 02:11:38;;;;;;;3.43;1.50;;;3.60;99.90;;;;;;5044262;28;20227;-81
2023/01/17 02:14:04;;;;;;;2.63;1.43;;;3.60;99.90;;;;;;5040140;28;20173;-82
2023/01/17 02:16:32;;;;;;;2.17;1.43;;;3.60;99.90;;;;;;5039678;28;20168;-81
2023/01/17 02:19:20;;;;;;;6.83;2.20;;;3.50;99.90;;;;;;5040897;28;20532;-82
2023/01/17 02:21:52;;;;;;;3.33;1.90;;;3.60;99.90;;;;;;5039299;28;20299;-82
2023/01/17 02:24:33;;;;;;;3.00;1.47;;;3.60;99.90;;;;;;5058193;28;20210;-81
2023/01/17 02:27:41;;;;;;;4.33;1.10;;;3.50;99.90;;;;;;5057568;28;20179;-82
2023/01/17 02:30:32;;;;;;;1.20;1.10;;;3.50;99.90;;;;;;5060190;28;20187;-81
2023/01/17 02:33:19;;;;;;;1.70;1.00;;;3.50;99.90;;;;;;5058925;28;20167;-81
2023/01/17 02:36:09;;;;;;;0.80;0.73;;;3.50;99.90;;;;;;5060125;28;20182;-81
2023/01/17 02:38:58;;;;;;;0.80;0.77;;;3.50;99.90;;;;;;5059455;28;20160;-81
2023/01/17 02:44:55;;;;;;;1.30;0.80;;;3.40;99.90;;;;;;5058935;28;20252;-81
2023/01/17 02:47:23;;;;;;;1.87;0.90;;;4.00;99.90;;;;;;5058912;28;20212;-81
2023/01/17 02:49:55;;;;;;;3.23;1.10;;;3.30;99.90;;;;;;5058985;28;20172;-82
2023/01/17 02:52:38;;;;;;;2.87;1.60;;;3.30;99.90;;;;;;5058867;28;20192;-82
2023/01/17 02:55:16;;;;;;;8.20;2.97;;;3.30;99.90;;;;;;5059444;28;20176;-82
2023/01/17 02:58:02;;;;;;;3.13;2.20;;;3.30;99.90;;;;;;5059184;28;20191;-81
2023/01/17 03:00:43;;;;;;;3.43;1.03;;;3.20;99.90;;;;;;5058668;28;20179;-82
2023/01/17 03:03:46;;;;;;;0.90;0.80;;;3.20;99.90;;;;;;5060606;28;20163;-81
2023/01/17 03:06:17;;;;;;;0.80;0.60;;;3.20;99.90;;;;;;5059775;28;20195;-83
2023/01/17 03:08:45;;;;;;;2.47;0.50;;;3.10;99.90;;;;;;5059563;28;20270;-81
2023/01/17 03:11:12;;;;;;;1.00;0.60;;;3.20;99.90;;;;;;5059560;28;20206;-81
2023/01/17 03:13:38;;;;;;;2.43;0.60;;;3.10;99.90;;;;;;5059671;28;20336;-81
2023/01/17 03:16:08;;;;;;;0.50;0.50;;;3.20;99.90;;;;;;5059329;28;20562;-83
2023/01/17 03:18:33;;;;;;;0.50;0.50;;;3.20;99.90;;;;;;5059411;28;20188;-82
2023/01/17 03:20:59;;;;;;;0.50;0.50;;;3.10;99.90;;;;;;5060455;28;20214;-82
2023/01/17 03:23:25;;;;;;;0.80;0.80;;;3.00;99.90;;;;;;5060837;28;20195;-81
2023/01/17 03:25:50;;;;;;;1.57;0.90;;;3.00;99.90;;;;;;5059382;28;20205;-82
2023/01/17 03:28:16;;;;;;;1.90;0.80;;;3.00;99.90;;;;;;5045457;28;20637;-82
2023/01/17 03:30:42;;;;;;;0.70;0.70;;;3.00;99.90;;;;;;5039373;28;20265;-82
2023/01/17 03:33:07;;;;;;;0.80;0.80;;;3.00;99.90;;;;;;5039598;28;20742;-82
2023/01/17 03:35:33;;;;;;;0.77;0.77;;;3.00;99.90;;;;;;5042982;28;20230;-81
2023/01/17 03:37:58;;;;;;;1.80;0.93;;;3.00;99.90;;;;;;5054431;28;20191;-81
2023/01/17 03:40:24;;;;;;;1.33;0.90;;;3.00;99.90;;;;;;5064130;28;20194;-81
2023/01/17 03:42:50;;;;;;;1.80;1.10;;;3.10;99.90;;;;;;5063030;28;20179;-82
2023/01/17 03:45:15;;;;;;;1.17;1.07;;;3.00;99.90;;;;;;5059865;28;20199;-82
2023/01/17 03:47:41;;;;;;;1.13;0.80;;;3.10;99.90;;;;;;5057744;28;20207;-81
2023/01/17 03:50:07;;;;;;;1.37;1.27;;;3.10;99.90;;;;;;5058576;28;20176;-82
2023/01/17 03:52:33;;;;;;;2.10;1.57;;;3.10;99.90;;;;;;5058954;28;20188;-82
2023/01/17 03:54:58;;;;;;;1.70;1.60;;;3.10;99.90;;;;;;5058394;28;20233;-82
2023/01/17 03:57:24;;;;;;;6.17;2.70;;;3.10;99.90;;;;;;5058522;28;20175;-82
2023/01/17 03:59:49;;;;;;;4.90;3.07;;;3.10;99.90;;;;;;5060109;28;20194;-82
2023/01/17 04:02:15;;;;;;;5.43;2.87;;;3.10;99.90;;;;;;5058089;28;20570;-82
2023/01/17 04:04:40;;;;;;;4.00;3.17;;;3.10;99.90;;;;;;5059351;28;20325;-82
2023/01/17 04:07:06;;;;;;;3.83;2.93;;;3.10;99.90;;;;;;5059061;28;20186;-82
2023/01/17 04:09:33;;;;;;;4.17;3.77;;;3.00;99.90;;;;;;5044103;28;20189;-82
2023/01/17 04:11:59;;;;;;;5.97;3.07;;;3.00;99.90;;;;;;5058449;28;20578;-82
2023/01/17 04:14:25;;;;;;;4.07;2.80;;;3.10;99.90;;;;;;5059576;28;20172;-82
2023/01/17 04:16:52;;;;;;;3.37;2.73;;;3.00;99.90;;;;;;5057598;28;20709;-82
2023/01/17 04:19:17;;;;;;;7.57;2.43;;;3.00;99.90;;;;;;5058426;28;20191;-82
2023/01/17 04:21:43;;;;;;;2.73;2.50;;;2.90;99.90;;;;;;5057838;28;20211;-82
2023/01/17 04:24:08;;;;;;;3.87;2.30;;;2.90;99.90;;;;;;5059091;28;20187;-82
2023/01/17 04:26:34;;;;;;;4.20;2.10;;;2.90;99.90;;;;;;5059856;28;20171;-82
2023/01/17 04:29:00;;;;;;;4.63;2.30;;;2.90;99.90;;;;;;5058607;28;20176;-82
2023/01/17 04:31:25;;;;;;;4.40;2.20;;;2.80;99.90;;;;;;5057499;28;20238;-82
2023/01/17 04:33:51;;;;;;;2.40;2.20;;;2.80;99.90;;;;;;5061366;28;20190;-82
2023/01/17 04:36:16;;;;;;;1.97;1.77;;;2.80;99.90;;;;;;5062029;28;20184;-82
2023/01/17 04:38:42;;;;;;;2.57;2.13;;;2.80;99.90;;;;;;5062375;28;20245;-81
2023/01/17 04:41:08;;;;;;;4.20;2.20;;;2.70;99.90;;;;;;5062868;28;20577;-82
2023/01/17 04:43:33;;;;;;;5.27;2.10;;;2.70;99.90;;;;;;5063141;28;20201;-82
2023/01/17 04:46:00;;;;;;;5.53;2.37;;;2.70;99.90;;;;;;5063400;28;20202;-82
2023/01/17 04:48:26;;;;;;;3.83;2.17;;;2.70;99.90;;;;;;5053931;28;20257;-81
2023/01/17 04:50:58;;;;;;;3.53;1.93;;;2.70;99.90;;;;;;5043291;28;20667;-82
2023/01/17 04:53:23;;;;;;;4.33;2.27;;;2.70;99.90;;;;;;5041706;28;20168;-81
2023/01/17 04:55:49;;;;;;;2.33;1.70;;;2.70;99.90;;;;;;5042522;28;20718;-82
2023/01/17 04:58:14;;;;;;;8.30;2.10;;;2.70;99.90;;;;;;5047430;28;20724;-81
2023/01/17 05:00:40;;;;;;;2.40;1.83;;;2.60;99.90;;;;;;5062078;28;20200;-82
2023/01/17 05:03:06;;;;;;;2.03;1.70;;;2.60;99.90;;;;;;5062635;28;20179;-82
2023/01/17 05:05:31;;;;;;;2.87;1.90;;;2.70;99.90;;;;;;5061134;28;20254;-82
2023/01/17 05:07:58;;;;;;;2.27;2.00;;;2.70;99.90;;;;;;5062412;28;20922;-83
2023/01/17 05:10:24;;;;;;;2.93;2.00;;;2.60;99.90;;;;;;5062961;28;20198;-81
2023/01/17 05:12:57;;;;;;;2.70;2.10;;;2.60;99.90;;;;;;5062392;28;20203;-83
2023/01/17 05:15:24;;;;;;;9.33;2.83;;;2.60;99.90;;;;;;5062463;28;20206;-82
2023/01/17 05:17:51;;;;;;;3.23;2.10;;;2.50;99.90;;;;;;5061716;28;20579;-83
2023/01/17 05:20:17;;;;;;;8.00;2.30;;;2.50;99.90;;;;;;5062523;28;20214;-82
2023/01/17 05:22:42;;;;;;;5.30;2.50;;;2.50;99.90;;;;;;5063333;28;20164;-83
2023/01/17 05:25:08;;;;;;;5.13;2.33;;;2.50;99.90;;;;;;5060529;28;20208;-82
2023/01/17 05:27:33;;;;;;;5.33;2.23;;;2.50;99.90;;;;;;5062414;28;20168;-82
2023/01/17 05:29:59;;;;;;;4.20;2.30;;;2.50;99.90;;;;;;5042177;28;20738;-83
2023/01/17 05:32:24;;;;;;;3.97;2.40;;;2.50;99.90;;;;;;5040564;28;20231;-82
2023/01/17 05:34:50;;;;;;;5.40;2.93;;;2.50;99.90;;;;;;5057791;28;20211;-81
2023/01/17 05:37:16;;;;;;;4.27;2.13;;;2.50;99.90;;;;;;5042978;28;20180;-82
2023/01/17 05:39:41;;;;;;;2.50;2.30;;;2.50;99.90;;;;;;5062116;28;20187;-82
2023/01/17 05:42:07;;;;;;;3.80;2.50;;;2.40;99.90;;;;;;5060610;28;20200;-81
2023/01/17 05:44:32;;;;;;;6.43;3.03;;;2.50;99.90;;;;;;5061072;28;20219;-82
2023/01/17 05:46:58;;;;;;;4.80;3.40;;;2.40;99.90;;;;;;5062165;28;20176;-82
2023/01/17 05:49:23;;;;;;;5.70;4.00;;;2.40;99.90;;;;;;5042925;28;20180;-81
2023/01/17 05:51:49;;;;;;;6.10;4.17;;;2.40;99.90;;;;;;5042065;28;20192;-82
2023/01/17 05:54:15;;;;;;;8.40;4.93;;;2.40;99.90;;;;;;5042451;28;20180;-83
2023/01/17 05:56:41;;;;;;;6.60;5.10;;;2.40;99.90;;;;;;5041691;28;20543;-82
2023/01/17 05:59:07;;;;;;;10.03;5.07;;;2.50;99.90;;;;;;5056115;28;20203;-82
2023/01/17 06:01:32;;;;;;;8.47;5.37;;;2.40;99.90;;;;;;5061285;28;20275;-82
2023/01/17 06:03:58;;;;;;;11.53;5.60;;;2.40;99.90;;;;;;5061481;28;20306;-82
2023/01/17 06:06:23;;;;;;;8.23;5.67;;;2.40;99.90;;;;;;5061227;28;20300;-82
2023/01/17 06:08:49;;;;;;;9.50;6.20;;;2.40;99.90;;;;;;5047109;28;20558;-82
2023/01/17 06:11:14;;;;;;;6.03;5.30;;;2.30;99.90;;;;;;5041072;28;20242;-83
2023/01/17 06:13:40;;;;;;;8.20;5.80;;;2.30;99.90;;;;;;5039721;28;20204;-82
2023/01/17 06:16:06;;;;;;;12.80;5.80;;;2.30;99.90;;;;;;5041064;28;20584;-82
2023/01/17 06:18:31;;;;;;;10.83;6.37;;;2.40;99.90;;;;;;5050404;28;20187;-82
2023/01/17 06:20:57;;;;;;;10.50;6.00;;;2.30;99.90;;;;;;5059514;28;20614;-82
2023/01/17 06:23:23;;;;;;;8.63;5.90;;;2.40;99.90;;;;;;5060673;28;20687;-83
2023/01/17 06:25:49;;;;;;;8.93;6.73;;;2.40;99.90;;;;;;5059089;28;20207;-82
2023/01/17 06:28:18;;;;;;;10.07;6.00;;;2.30;99.90;;;;;;5058406;28;20198;-84
2023/01/17 06:30:44;;;;;;;8.67;6.40;;;2.30;99.90;;;;;;5060255;28;20226;-82
2023/01/17 06:33:10;;;;;;;9.33;5.73;;;2.30;99.90;;;;;;5059418;28;20172;-82
2023/01/17 06:35:37;;;;;;;8.77;6.27;;;2.30;99.90;;;;;;5061310;28;20247;-81
2023/01/17 06:38:02;;;;;;;11.00;6.40;;;2.30;99.90;;;;;;5054613;28;20184;-82
2023/01/17 06:40:29;;;;;;;11.93;6.70;;;2.30;99.90;;;;;;5039520;28;20211;-82
2023/01/17 06:43:02;;;;;;;11.07;5.83;;;2.20;99.90;;;;;;5041132;28;20532;-82
2023/01/17 06:45:31;;;;;;;9.33;5.93;;;2.20;99.90;;;;;;5039118;28;20318;-82
2023/01/17 06:47:58;;;;;;;9.27;5.67;;;2.20;99.90;;;;;;5042191;28;20239;-81
2023/01/17 06:50:24;;;;;;;9.60;6.00;;;2.20;99.90;;;;;;5056996;28;20237;-79
2023/01/17 06:52:58;;;;;;;8.43;6.13;;;2.20;99.90;;;;;;5057673;28;20164;-79
2023/01/17 06:55:27;;;;;;;10.27;7.07;;;2.20;99.90;;;;;;5056144;28;20651;-80
2023/01/17 06:57:58;;;;;;;14.43;6.87;;;2.20;99.90;;;;;;5057204;28;20218;-79
2023/01/17 07:00:24;;;;;;;13.17;7.20;;;2.20;99.90;;;;;;5057428;28;20186;-80
2023/01/17 07:02:50;;;;;;;9.73;6.87;;;2.20;99.90;;;;;;5056396;28;20176;-80
2023/01/17 07:05:16;;;;;;;12.07;7.90;;;2.20;99.90;;;;;;5057480;28;20192;-79
2023/01/17 07:07:43;;;;;;;11.77;7.13;;;2.20;99.90;;;;;;5056991;28;20725;-79
2023/01/17 07:10:10;;;;;;;12.20;7.77;;;2.30;99.90;;;;;;5055459;28;20176;-79
2023/01/17 07:12:36;;;;;;;16.60;8.47;;;2.30;99.90;;;;;;5056056;28;20515;-79
2023/01/17 07:15:01;;;;;;;13.10;8.40;;;2.30;99.90;;;;;;5057133;28;20362;-80
2023/01/17 07:17:27;;;;;;;15.67;9.43;;;2.30;99.90;;;;;;5052198;28;20187;-82
2023/01/17 07:19:52;;;;;;;17.80;10.00;;;2.20;99.90;;;;;;5054443;28;20274;-81
2023/01/17 07:22:18;;;;;;;17.57;9.97;;;2.20;99.90;;;;;;5062404;28;20282;-80
2023/01/17 07:24:43;;;;;;;18.73;11.53;;;2.20;99.90;;;;;;5065069;28;20199;-81
2023/01/17 07:27:09;;;;;;;14.47;10.83;;;2.20;99.90;;;;;;5060788;28;20175;-79
2023/01/17 07:29:34;;;;;;;19.17;10.80;;;2.30;99.90;;;;;;5054072;28;20187;-79
2023/01/17 07:32:00;;;;;;;18.40;9.87;;;2.30;99.90;;;;;;5054910;28;20195;-80
2023/01/17 07:34:26;;;;;;;14.93;9.53;;;2.30;99.90;;;;;;5056386;28;20179;-80
2023/01/17 07:36:53;;;;;;;17.63;10.63;;;2.30;99.90;;;;;;5054701;28;20186;-80
2023/01/17 07:39:19;;;;;;;15.50;9.27;;;2.30;99.90;;;;;;5053570;28;20278;-80
2023/01/17 07:41:45;;;;;;;10.93;8.00;;;2.30;99.90;;;;;;5054408;28;20235;-80
2023/01/17 07:44:12;;;;;;;14.20;9.90;;;2.20;99.90;;;;;;5055481;28;20548;-79
2023/01/17 07:46:37;;;;;;;14.67;7.93;;;2.20;99.90;;;;;;5056229;28;20183;-80
2023/01/17 07:49:03;;;;;;;11.03;7.87;;;2.20;99.90;;;;;;5055558;28;20175;-80
2023/01/17 07:51:28;;;;;;;14.80;8.53;;;2.20;99.90;;;;;;5056486;28;20621;-79
2023/01/17 07:53:54;;;;;;;12.07;8.83;;;2.30;99.90;;;;;;5055472;28;20175;-79
2023/01/17 07:56:20;;;;;;;10.17;7.27;;;2.20;99.90;;;;;;5055878;28;20545;-80
2023/01/17 07:58:47;;;;;;;13.17;7.60;;;2.20;99.90;;;;;;5055576;28;20237;-79
2023/01/17 08:01:14;;;;;;;12.93;8.27;;;2.30;99.90;;;;;;5054630;28;20199;-80
2023/01/17 08:03:40;;;;;;;11.33;8.53;;;2.30;99.90;;;;;;5054611;28;20178;-79
2023/01/17 08:06:17;;;;;;;13.70;8.17;;;2.30;99.90;;;;;;5055604;28;20195;-79
2023/01/17 08:08:43;;;;;;;15.13;7.50;;;2.30;99.90;;;;;;5058072;28;20183;-79
2023/01/17 08:11:09;;;;;;;13.43;7.67;;;2.40;99.90;;;;;;5059775;28;20280;-79
2023/01/17 08:13:34;;;;;;;13.83;7.83;;;2.30;99.90;;;;;;5059521;28;20167;-80
2023/01/17 08:16:02;;;;;;;15.27;8.27;;;2.40;99.90;;;;;;5060175;28;20168;-80
2023/01/17 08:18:28;;;;;;;12.53;7.60;;;2.30;99.90;;;;;;5051036;28;20250;-79
2023/01/17 08:20:53;;;;;;;10.30;7.23;;;2.30;99.90;;;;;;5039981;28;20226;-80
2023/01/17 08:23:19;;;;;;;11.87;6.40;;;2.30;99.90;;;;;;5038335;28;20180;-80
2023/01/17 08:25:45;;;;;;;12.83;7.00;;;2.30;99.90;;;;;;5039728;28;20196;-80
2023/01/17 08:28:10;;;;;;;13.63;6.77;;;2.30;99.90;;;;;;5044194;28;20186;-80
2023/01/17 08:30:36;;;;;;;10.60;6.80;;;2.30;99.90;;;;;;5059723;28;20213;-79
2023/01/17 08:33:02;;;;;;;13.43;6.97;;;2.20;99.90;;;;;;5059717;28;20172;-79
2023/01/17 08:35:28;;;;;;;10.50;6.43;;;2.20;99.90;;;;;;5058470;28;20550;-79
2023/01/17 08:37:55;;;;;;;16.07;7.40;;;2.10;99.90;;;;;;5058737;28;20651;-80
2023/01/17 08:40:21;;;;;;;11.30;7.07;;;2.10;99.90;;;;;;5059087;28;20197;-80
2023/01/17 08:42:54;;;;;;;11.40;7.23;;;2.10;99.90;;;;;;5058649;28;20526;-80
2023/01/17 08:45:20;;;;;;;14.97;6.47;;;2.10;99.90;;;;;;5057899;28;20199;-80
2023/01/17 08:47:46;;;;;;;10.63;6.30;;;2.10;99.90;;;;;;5057899;28;20172;-80
2023/01/17 08:50:11;;;;;;;15.33;7.27;;;2.00;99.90;;;;;;5058824;28;20164;-80
2023/01/17 08:52:37;;;;;;;12.93;6.20;;;2.00;99.90;;;;;;5058843;28;20164;-79
2023/01/17 08:55:04;;;;;;;12.20;6.77;;;2.10;99.90;;;;;;5057297;28;20259;-79
2023/01/17 08:57:30;;;;;;;14.57;6.93;;;2.00;99.90;;;;;;5057299;28;20182;-79
2023/01/17 08:59:56;;;;;;;11.07;6.60;;;2.00;99.90;;;;;;5058259;28;20552;-80
2023/01/17 09:02:23;;;;;;;9.80;6.57;;;2.00;99.90;;;;;;5051162;28;20200;-80
2023/01/17 09:04:49;;;;;;;11.53;5.93;;;2.00;99.90;;;;;;5038778;28;20250;-80
2023/01/17 09:07:16;;;;;;;8.17;5.83;;;2.00;99.90;;;;;;5037333;28;20191;-80
2023/01/17 09:09:42;;;;;;;11.30;6.80;;;2.00;99.90;;;;;;5037410;28;20179;-79
2023/01/17 09:12:08;;;;;;;11.90;6.63;;;2.00;99.90;;;;;;5047098;28;20286;-79
2023/01/17 09:14:34;;;;;;;9.77;6.17;;;2.00;99.90;;;;;;5057485;28;20180;-80
2023/01/17 09:17:00;;;;;;;10.53;6.67;;;2.10;99.90;;;;;;5057708;28;20198;-79
2023/01/17 09:19:26;;;;;;;12.27;6.40;;;2.10;99.90;;;;;;5056788;28;20179;-79
2023/01/17 09:21:52;;;;;;;8.93;6.33;;;2.10;99.90;;;;;;5057486;28;20250;-79
2023/01/17 09:24:17;;;;;;;10.53;6.27;;;2.10;99.90;;;;;;5058014;28;20179;-79
2023/01/17 09:26:43;;;;;;;16.10;7.23;;;2.20;99.90;;;;;;5057991;28;20663;-80
2023/01/17 09:29:08;;;;;;;16.07;7.07;;;2.20;99.90;;;;;;5058612;28;20266;-80
2023/01/17 09:31:34;;;;;;;12.80;6.40;;;2.20;99.90;;;;;;5057389;28;20612;-80
2023/01/17 09:33:59;;;;;;;18.27;6.87;;;2.20;99.90;;;;;;5058358;28;20171;-79
2023/01/17 09:36:27;;;;;;;14.07;6.73;;;2.30;99.90;;;;;;5058027;28;20176;-79
2023/01/17 09:38:57;;;;;;;12.70;7.10;;;2.30;99.90;;;;;;5055477;28;20651;-80
2023/01/17 09:41:29;;;;;;;14.83;6.17;;;2.30;99.90;;;;;;5056305;28;20200;-80
2023/01/17 09:44:00;;;;;;;9.43;6.00;;;2.40;99.90;;;;;;5055973;28;20659;-80
2023/01/17 09:46:29;;;;;;;17.73;6.90;;;2.50;99.90;;;;;;5058159;28;20561;-78
2023/01/17 09:49:07;;;;;;;15.43;7.00;;;2.50;99.90;;;;;;5055257;28;20184;-79
2023/01/17 09:51:33;;;;;;;12.70;6.87;;;2.50;99.90;;;;;;5058290;28;20199;-78
2023/01/17 09:53:59;;;;;;;10.80;6.47;;;2.60;99.90;;;;;;5055879;28;20168;-78
2023/01/17 09:56:44;;;;;;;12.43;6.60;;;2.70;99.90;;;;;;5056458;28;20187;-79
2023/01/17 09:59:27;;;;;;;12.60;7.17;;;2.80;99.90;;;;;;5056159;28;20189;-79
2023/01/17 10:02:27;;;;;;;8.60;6.37;;;2.90;99.90;;;;;;5057368;28;20289;-79
2023/01/17 10:05:21;;;;;;;10.80;6.03;;;2.90;99.90;;;;;;5055879;28;20683;-78
2023/01/17 10:08:05;;;;;;;15.43;7.07;;;3.00;99.90;;;;;;5055013;28;20176;-78
2023/01/17 10:10:41;;;;;;;11.37;7.40;;;3.10;99.90;;;;;;5056711;28;20192;-78
2023/01/17 10:13:35;;;;;;;15.17;7.87;;;3.10;99.90;;;;;;5055915;28;20179;-78
2023/01/17 10:16:30;;;;;;;9.90;6.87;;;3.20;99.90;;;;;;5056803;28;20160;-78
2023/01/17 10:19:07;;;;;;;11.23;5.87;;;3.10;99.90;;;;;;5055957;28;20214;-79
2023/01/17 10:21:50;;;;;;;10.90;5.97;;;3.20;99.90;;;;;;5055775;28;20243;-79
2023/01/17 10:24:44;;;;;;;11.80;6.77;;;3.20;99.90;;;;;;5056118;28;20167;-79
2023/01/17 10:27:32;;;;;;;14.80;5.70;;;3.30;99.90;;;;;;5056407;28;20185;-79
2023/01/17 10:30:03;;;;;;;12.80;5.80;;;3.30;99.90;;;;;;5054416;28;20175;-78
2023/01/17 10:32:33;;;;;;;12.43;6.73;;;3.40;99.90;;;;;;5056470;28;20195;-79
2023/01/17 10:35:14;;;;;;;20.10;6.23;;;3.40;99.90;;;;;;5056233;28;20226;-78
2023/01/17 10:37:42;;;;;;;9.03;5.37;;;3.40;99.90;;;;;;5055752;28;20528;-79
2023/01/17 10:40:15;;;;;;;8.57;5.87;;;3.40;99.90;;;;;;5056470;28;20175;-79
2023/01/17 10:42:51;;;;;;;9.67;5.57;;;3.50;99.90;;;;;;5056141;28;20182;-79
2023/01/17 10:45:27;;;;;;;8.60;5.10;;;3.50;99.90;;;;;;5055985;28;20217;-79
2023/01/17 10:48:27;;;;;;;10.37;5.53;;;3.50;99.90;;;;;;5053770;28;20175;-78
2023/01/17 10:51:30;;;;;;;10.57;5.37;;;3.50;99.90;;;;;;5056336;28;20678;-79
2023/01/17 10:54:06;;;;;;;8.43;4.97;;;3.50;99.90;;;;;;5048056;28;20195;-79
2023/01/17 10:56:33;;;;;;;10.87;5.07;;;3.50;99.90;;;;;;5056048;28;20233;-80
2023/01/17 10:59:22;;;;;;;12.47;5.27;;;3.50;99.90;;;;;;5055408;28;20187;-79
2023/01/17 11:01:48;;;;;;;7.50;5.63;;;3.60;99.90;;;;;;5055995;28;20776;-79
2023/01/17 11:04:22;;;;;;;9.63;5.00;;;3.60;99.90;;;;;;5054371;28;20171;-79
2023/01/17 11:07:08;;;;;;;11.80;5.30;;;3.60;99.90;;;;;;5055207;28;20152;-79
2023/01/17 11:09:46;;;;;;;8.60;4.87;;;3.70;99.90;;;;;;5055698;28;20645;-79
2023/01/17 11:12:19;;;;;;;9.07;5.70;;;3.70;99.90;;;;;;5056010;28;20195;-79
2023/01/17 11:15:09;;;;;;;16.57;5.67;;;3.80;99.90;;;;;;5056183;28;20160;-79
2023/01/17 11:17:37;;;;;;;10.33;5.37;;;3.90;99.90;;;;;;5054712;28;20555;-78
2023/01/17 11:20:33;;;;;;;7.33;4.77;;;3.90;99.90;;;;;;5056272;28;20172;-79
2023/01/17 11:23:14;;;;;;;10.30;5.53;;;3.90;99.90;;;;;;5055937;28;20191;-79
2023/01/17 11:25:47;;;;;;;10.80;5.60;;;4.00;99.90;;;;;;5055309;28;20187;-78
2023/01/17 11:28:29;;;;;;;14.07;5.97;;;4.00;99.90;;;;;;5055092;28;20190;-79
2023/01/17 11:30:57;;;;;;;10.37;5.13;;;4.10;99.90;;;;;;5055796;28;20188;-78
2023/01/17 11:33:54;;;;;;;11.37;5.80;;;4.10;99.90;;;;;;5055916;28;20710;-79
2023/01/17 11:36:28;;;;;;;8.73;5.73;;;4.10;99.90;;;;;;5054103;28;20187;-79
2023/01/17 11:38:57;;;;;;;9.83;5.70;;;4.10;99.90;;;;;;5053084;28;20697;-79
2023/01/17 11:41:24;;;;;;;8.77;5.07;;;4.20;99.90;;;;;;5055531;28;20214;-78
2023/01/17 11:43:57;;;;;;;10.10;5.80;;;4.30;99.90;;;;;;5054133;28;20189;-79
2023/01/17 11:46:23;;;;;;;7.63;4.67;;;4.30;99.90;;;;;;5053928;28;20206;-79
2023/01/17 11:48:58;;;;;;;13.63;5.50;;;4.30;99.90;;;;;;5041642;28;20188;-79
2023/01/17 11:51:37;;;;;;;13.40;5.10;;;4.40;99.90;;;;;;5035650;28;20184;-79
2023/01/17 11:54:22;;;;;;;9.87;5.63;;;4.40;99.90;;;;;;5034544;28;20255;-78
2023/01/17 11:56:49;;;;;;;13.03;5.40;;;4.50;99.90;;;;;;5035335;28;20172;-79
2023/01/17 11:59:21;;;;;;;12.83;6.10;;;4.50;99.90;;;;;;5050771;28;20651;-79
2023/01/17 12:02:09;;;;;;;13.30;5.17;;;4.50;99.90;;;;;;5053635;28;20199;-78
2023/01/17 12:04:40;;;;;;;13.80;5.83;;;4.60;99.90;;;;;;5055558;28;20210;-79
2023/01/17 12:07:38;;;;;;;15.97;5.57;;;4.60;99.90;;;;;;5055484;28;20185;-79
2023/01/17 12:10:15;;;;;;;13.37;6.67;;;4.60;99.90;;;;;;5054855;28;20218;-79
2023/01/17 12:19:01;;;;;;;10.73;5.47;;;4.60;99.90;;;;;;5054416;28;20198;-79
2023/01/17 12:21:35;;;;;;;9.23;5.40;;;4.50;99.90;;;;;;5054801;28;20214;-78
2023/01/17 12:24:03;;;;;;;14.07;5.30;;;4.50;99.90;;;;;;5055029;28;20178;-78
2023/01/17 12:26:49;;;;;;;14.87;4.83;;;4.60;99.90;;;;;;5055820;28;20214;-80
2023/01/17 12:29:40;;;;;;;6.93;3.83;;;4.60;99.90;;;;;;5058884;28;20195;-80
2023/01/17 12:32:55;;;;;;;15.80;5.13;;;4.70;99.90;;;;;;5059275;28;20671;-80
2023/01/17 12:35:29;;;;;;;6.97;4.80;;;4.80;99.90;;;;;;5054675;28;20190;-78
2023/01/17 12:38:01;;;;;;;13.30;5.60;;;4.90;99.90;;;;;;5054755;28;20190;-77
2023/01/17 12:40:43;;;;;;;11.00;5.10;;;5.00;99.90;;;;;;5059770;28;20628;-80
2023/01/17 12:43:31;;;;;;;11.27;4.90;;;5.00;99.90;;;;;;5060275;28;20665;-79
2023/01/17 12:45:59;;;;;;;13.10;3.83;;;5.10;99.90;;;;;;5060609;28;20605;-79
2023/01/17 12:48:29;;;;;;;7.97;3.83;;;5.10;99.90;;;;;;5060000;28;20188;-79
2023/01/17 12:51:17;;;;;;;8.27;4.03;;;5.20;99.90;;;;;;5059400;28;20252;-78
2023/01/17 12:54:06;;;;;;;10.60;3.63;;;5.20;99.90;;;;;;5062580;28;20151;-79
2023/01/17 12:56:38;;;;;;;6.20;3.40;;;5.20;99.90;;;;;;5064148;28;20673;-78
2023/01/17 12:59:25;;;;;;;10.03;3.30;;;5.20;99.90;;;;;;5063982;28;20183;-79
2023/01/17 13:01:58;;;;;;;5.77;3.13;;;5.20;99.90;;;;;;5062866;28;20199;-80
2023/01/17 13:04:32;;;;;;;5.67;3.33;;;5.20;99.90;;;;;;5061935;28;20198;-79
2023/01/17 13:07:04;;;;;;;9.97;3.87;;;5.20;99.90;;;;;;5061677;28;20535;-79
2023/01/17 13:09:36;;;;;;;7.03;2.93;;;5.10;99.90;;;;;;5061574;28;20589;-79
2023/01/17 13:12:06;;;;;;;4.83;3.13;;;5.20;1.00;;;;;;5062952;28;20579;-79
2023/01/17 13:14:32;;;;;;;10.03;3.30;;;5.20;99.90;;;;;;5061313;28;20186;-79
2023/01/17 13:17:13;;;;;;;6.00;2.87;;;5.20;1.00;;;;;;5062612;28;20195;-79
2023/01/17 13:19:52;;;;;;;5.47;2.70;;;5.20;27.40;;;;;;5061309;28;20183;-79
2023/01/17 13:22:21;;;;;;;8.60;3.27;;;5.30;99.90;;;;;;5062536;28;20577;-79
2023/01/17 13:25:06;;;;;;;7.30;3.13;;;5.30;1.00;;;;;;5061382;28;20202;-79
2023/01/17 13:28:01;;;;;;;11.00;3.30;;;5.30;1.00;;;;;;5061199;28;20207;-80
2023/01/17 13:30:52;;;;;;;5.53;2.97;;;5.30;1.00;;;;;;5060845;28;20179;-79
2023/01/17 13:33:24;;;;;;;6.93;2.63;;;5.30;1.00;;;;;;5061411;28;20156;-79
2023/01/17 13:36:05;;;;;;;9.30;3.23;;;5.30;8.30;;;;;;5062130;28;20160;-79
2023/01/17 13:38:53;;;;;;;5.13;2.67;;;5.30;1.00;;;;;;5060293;28;20199;-79
2023/01/17 13:41:58;;;;;;;6.40;2.97;;;5.30;99.90;;;;;;5062903;28;20238;-78
2023/01/17 13:44:27;;;;;;;3.93;2.33;;;5.20;49.70;;;;;;5059446;28;20152;-81
2023/01/17 13:47:26;;;;;;;8.13;2.60;;;5.10;9.70;;;;;;5058879;28;20199;-80
2023/01/17 13:49:55;;;;;;;6.43;2.30;;;5.10;99.90;;;;;;5057693;28;20264;-80
2023/01/17 13:52:22;;;;;;;5.47;2.17;;;5.00;99.90;;;;;;5057891;28;20198;-80
2023/01/17 13:54:55;;;;;;;8.50;3.47;;;5.00;99.90;;;;;;5058417;28;20172;-79
2023/01/17 13:57:28;;;;;;;9.57;2.63;;;5.00;1.00;;;;;;5057364;28;20600;-80
2023/01/17 14:00:26;;;;;;;6.13;2.80;;;4.90;1.00;;;;;;5056030;28;20206;-79
2023/01/17 14:02:52;;;;;;;3.60;2.20;;;4.90;1.00;;;;;;5039848;28;20639;-79
2023/01/17 14:05:22;;;;;;;7.03;2.30;;;4.80;1.00;;;;;;5053507;28;20213;-78
2023/01/17 14:07:56;;;;;;;4.37;1.90;;;4.80;1.00;;;;;;5057100;28;20176;-78
2023/01/17 14:10:41;;;;;;;9.53;2.53;;;4.80;1.00;;;;;;5055457;28;20176;-79
2023/01/17 14:13:31;;;;;;;7.50;2.37;;;4.80;1.00;;;;;;5036882;28;20179;-78
2023/01/17 14:15:57;;;;;;;6.40;1.87;;;4.80;1.00;;;;;;5036882;28;20181;-79
2023/01/17 14:18:38;;;;;;;5.70;2.20;;;4.80;99.90;;;;;;5036045;28;20705;-79
2023/01/17 14:21:22;;;;;;;7.53;2.03;;;4.70;1.00;;;;;;5039882;28;20273;-78
2023/01/17 14:24:02;;;;;;;6.10;2.00;;;4.70;1.00;;;;;;5056792;28;20258;-78
2023/01/17 14:26:40;;;;;;;5.00;1.80;;;4.70;1.00;;;;;;5055098;28;20229;-77
2023/01/17 14:29:43;;;;;;;10.00;2.20;;;4.70;99.90;;;;;;5056807;28;20500;-78
2023/01/17 14:32:16;;;;;;;6.87;1.83;;;4.70;1.00;;;;;;5041775;28;20233;-77
2023/01/17 14:34:44;;;;;;;3.77;1.60;;;4.70;99.90;;;;;;5056418;28;20178;-78
2023/01/17 14:37:23;;;;;;;5.37;2.07;;;4.70;1.00;;;;;;5057006;28;20172;-78
2023/01/17 14:39:50;;;;;;;7.97;2.53;;;4.70;1.00;;;;;;5055889;28;20240;-79
2023/01/17 14:42:19;;;;;;;2.63;1.57;;;4.70;2.60;;;;;;5054569;28;20199;-79
2023/01/17 14:44:53;;;;;;;4.97;1.67;;;4.60;99.90;;;;;;5054957;28;20214;-79
2023/01/17 14:47:21;;;;;;;5.33;1.63;;;4.70;1.00;;;;;;5054570;28;20195;-79
2023/01/17 14:49:46;;;;;;;5.10;1.70;;;4.70;1.00;;;;;;5055196;28;20267;-79